Alaska Titan — WDE4789 — position and weather

sailwx.info

Track history (hours):
 
Tides and Currents Weather Stations Pressure Air Temp Water Temp Dewpoint Dewpoint Depression Visibility Wind Speed Wind Dir Waves Ship Positions

Alaska Titan

Owner: WESTERN TOWBOAT CO, Seattle, WA. More information available from US FCC via Universal Licensing System and Coast Guard Vessel Documentation Center.

Last reported at 2015-Mar-25 16:39 UTC. Time now 2015-Mar-31 20:45 UTC.
Position N 47°39' W 122°22'.

Length 40 m; draft 6 m.

Type: Tow > 200 m length. MMSI: 367357890.

Date/timePositionNaut miles runAvg speedWind from/ knotsBaromVisibWave heightAir tempDewpointWater temp
2015-Mar-25 16:39N 47°39' W 122°22'0 0.0
2015-Mar-25 16:33N 47°39' W 122°22'0 0.0
2015-Mar-25 16:29N 47°39' W 122°22'2 2.0
2015-Mar-25 15:33N 47°40' W 122°24'0 6.4
2015-Mar-25 15:29N 47°41' W 122°25'5 5.8
2015-Mar-25 14:33N 47°36' W 122°22'2 2.4
2015-Mar-25 13:46N 47°37' W 122°24'2 9.8
2015-Mar-25 13:33N 47°38' W 122°27'0 7.3
2015-Mar-25 13:32N 47°38' W 122°27'9 9.2
2015-Mar-25 12:33N 47°47' W 122°27'0 7.6
2015-Mar-25 12:32N 47°47' W 122°27'9 9.3
2015-Mar-25 11:33N 47°56' W 122°32'1 9.4
2015-Mar-25 11:26N 47°57' W 122°33'7 8.3
2015-Mar-25 10:32N 48°03' W 122°39'9 7.3
2015-Mar-25 09:17N 48°10' W 122°47'6 7.7
2015-Mar-25 08:31N 48°16' W 122°48'9 9.7
2015-Mar-25 07:33N 48°25' W 122°45'10 9.7
2015-Mar-25 06:33N 48°35' W 122°45'9 8.6
2015-Mar-25 05:33N 48°43' W 122°46'9 9.2
2015-Mar-25 04:33N 48°49' W 122°57'9 9.2
2015-Mar-25 03:33N 48°54' W 123°08'8 8.5
2015-Mar-25 02:33N 49°00' W 123°18'9 8.8
2015-Mar-25 01:33N 49°06' W 123°28'9 8.6
2015-Mar-25 00:33N 49°12' W 123°37'8 8.4
2015-Mar-24 23:33N 49°18' W 123°46'9 9.1
2015-Mar-24 22:32N 49°24' W 123°57'10 9.3
2015-Mar-24 21:31N 49°29' W 124°09'13 9.5
2015-Mar-24 20:09N 49°36' W 124°26'15 9.2
2015-Mar-24 18:31N 49°44' W 124°45'97 8.1
2015-Mar-24 06:33N 50°39' W 126°50'10 9.7
2015-Mar-24 05:34N 50°44' W 127°03'9 9.2
2015-Mar-24 04:33N 50°49' W 127°15'8 8.4
2015-Mar-24 03:33N 50°55' W 127°25'9 9.0
2015-Mar-24 02:33N 51°00' W 127°36'9 9.5
2015-Mar-24 01:34N 51°07' W 127°47'22 9.6
2015-Mar-23 23:16N 51°29' W 127°51'278 7.9
2015-Mar-22 12:00N 55°24' W 132°00'57 9.5 140 / 101016.2 5.4 6.7
2015-Mar-22 06:00N 56°12' W 132°54'39 6.5 1017.010.8 6.1
2015-Mar-22 00:00N 56°00' W 134°00'40 6.6 180 / 181005.0 5.4 2.010.0
2015-Mar-21 18:00N 56°36' W 134°30'48 8.1 180 / 201012.5 5.4 1.0 8.3
2015-Mar-21 12:00N 57°24' W 134°42'53 8.8 170 / 201000.8 2.2 0.5 6.1
2015-Mar-21 06:00N 58°12' W 135°24'5 8.6 090 / 221003.5 5.4 0.5 6.1
2015-Mar-21 05:23N 58°15' W 135°32'910.6
2015-Mar-21 04:32N 58°18' W 135°48'9 9.2
2015-Mar-21 03:33N 58°15' W 136°04'19 5.3
2015-Mar-21 00:00N 58°06' W 136°36'59 9.9 070 / 351000.0 5.4 1.0 8.3
2015-Mar-20 18:00N 58°42' W 138°06'15626.0 360 / 15999.010.8 0.5 7.8
2015-Mar-20 12:00N 56°12' W 139°24'20634.4 120 / 151000.8 2.2 0.5 6.1
2015-Mar-20 06:00N 59°30' W 141°12'49 8.1 100 / 151010.010.8 0.5 7.2
2015-Mar-20 00:00N 59°30' W 142°48'43 7.1 090 / 201010.2 5.4 0.5 9.4
2015-Mar-19 18:00N 59°30' W 144°12'16 2.7 110 / 201009.9 5.4 3.0 7.2
2015-Mar-19 12:00N 59°36' W 144°42'24 4.1 090 / 371000.6 2.2 4.0 6.1
2015-Mar-19 06:00N 59°48' W 145°24'19 6.4 090 / 181000.710.8 1.0 7.2
2015-Mar-19 03:00N 60°00' W 145°54'22 7.3 120 / 201000.8 5.4 1.0 4.5
2015-Mar-19 00:00N 60°06' W 146°36'44 6.3 100 / 301010.1 5.4 1.0 8.9
2015-Mar-18 17:00N 60°36' W 147°42'   090 / 281000.9 5.4 1.0 6.7
Track history (hours):
 
Tides and Currents Weather Stations Pressure Air Temp Water Temp Dewpoint Dewpoint Depression Visibility Wind Speed Wind Dir Waves Ship Positions

Alaska Titan

Owner: WESTERN TOWBOAT CO, Seattle, WA. More information available from US FCC via Universal Licensing System and Coast Guard Vessel Documentation Center.

Last reported at 2015-Mar-25 16:39 UTC. Time now 2015-Mar-31 20:45 UTC.
Position N 47°39' W 122°22'.

Length 40 m; draft 6 m.

Type: Tow > 200 m length. MMSI: 367357890.

Date/timePositionNaut miles runAvg speedWind from/ knotsBaromVisibWave heightAir tempDewpointWater temp
2015-Mar-25 16:39N 47°39' W 122°22'0 0.0
2015-Mar-25 16:33N 47°39' W 122°22'0 0.0
2015-Mar-25 16:29N 47°39' W 122°22'2 2.0
2015-Mar-25 15:33N 47°40' W 122°24'0 6.4
2015-Mar-25 15:29N 47°41' W 122°25'5 5.8
2015-Mar-25 14:33N 47°36' W 122°22'2 2.4
2015-Mar-25 13:46N 47°37' W 122°24'2 9.8
2015-Mar-25 13:33N 47°38' W 122°27'0 7.3
2015-Mar-25 13:32N 47°38' W 122°27'9 9.2
2015-Mar-25 12:33N 47°47' W 122°27'0 7.6
2015-Mar-25 12:32N 47°47' W 122°27'9 9.3
2015-Mar-25 11:33N 47°56' W 122°32'1 9.4
2015-Mar-25 11:26N 47°57' W 122°33'7 8.3
2015-Mar-25 10:32N 48°03' W 122°39'9 7.3
2015-Mar-25 09:17N 48°10' W 122°47'6 7.7
2015-Mar-25 08:31N 48°16' W 122°48'9 9.7
2015-Mar-25 07:33N 48°25' W 122°45'10 9.7
2015-Mar-25 06:33N 48°35' W 122°45'9 8.6
2015-Mar-25 05:33N 48°43' W 122°46'9 9.2
2015-Mar-25 04:33N 48°49' W 122°57'9 9.2
2015-Mar-25 03:33N 48°54' W 123°08'8 8.5
2015-Mar-25 02:33N 49°00' W 123°18'9 8.8
2015-Mar-25 01:33N 49°06' W 123°28'9 8.6
2015-Mar-25 00:33N 49°12' W 123°37'8 8.4
2015-Mar-24 23:33N 49°18' W 123°46'9 9.1
2015-Mar-24 22:32N 49°24' W 123°57'10 9.3
2015-Mar-24 21:31N 49°29' W 124°09'13 9.5
2015-Mar-24 20:09N 49°36' W 124°26'15 9.2
2015-Mar-24 18:31N 49°44' W 124°45'97 8.1
2015-Mar-24 06:33N 50°39' W 126°50'10 9.7
2015-Mar-24 05:34N 50°44' W 127°03'9 9.2
2015-Mar-24 04:33N 50°49' W 127°15'8 8.4
2015-Mar-24 03:33N 50°55' W 127°25'9 9.0
2015-Mar-24 02:33N 51°00' W 127°36'9 9.5
2015-Mar-24 01:34N 51°07' W 127°47'22 9.6
2015-Mar-23 23:16N 51°29' W 127°51'278 7.9
2015-Mar-22 12:00N 55°24' W 132°00'57 9.5 140 / 101016.2 5.4 6.7
2015-Mar-22 06:00N 56°12' W 132°54'39 6.5 1017.010.8 6.1
2015-Mar-22 00:00N 56°00' W 134°00'40 6.6 180 / 181005.0 5.4 2.010.0
2015-Mar-21 18:00N 56°36' W 134°30'48 8.1 180 / 201012.5 5.4 1.0 8.3
2015-Mar-21 12:00N 57°24' W 134°42'53 8.8 170 / 201000.8 2.2 0.5 6.1
2015-Mar-21 06:00N 58°12' W 135°24'5 8.6 090 / 221003.5 5.4 0.5 6.1
2015-Mar-21 05:23N 58°15' W 135°32'910.6
2015-Mar-21 04:32N 58°18' W 135°48'9 9.2
2015-Mar-21 03:33N 58°15' W 136°04'19 5.3
2015-Mar-21 00:00N 58°06' W 136°36'59 9.9 070 / 351000.0 5.4 1.0 8.3
2015-Mar-20 18:00N 58°42' W 138°06'15626.0 360 / 15999.010.8 0.5 7.8
2015-Mar-20 12:00N 56°12' W 139°24'20634.4 120 / 151000.8 2.2 0.5 6.1
2015-Mar-20 06:00N 59°30' W 141°12'49 8.1 100 / 151010.010.8 0.5 7.2
2015-Mar-20 00:00N 59°30' W 142°48'43 7.1 090 / 201010.2 5.4 0.5 9.4
2015-Mar-19 18:00N 59°30' W 144°12'16 2.7 110 / 201009.9 5.4 3.0 7.2
2015-Mar-19 12:00N 59°36' W 144°42'24 4.1 090 / 371000.6 2.2 4.0 6.1
2015-Mar-19 06:00N 59°48' W 145°24'19 6.4 090 / 181000.710.8 1.0 7.2
2015-Mar-19 03:00N 60°00' W 145°54'22 7.3 120 / 201000.8 5.4 1.0 4.5
2015-Mar-19 00:00N 60°06' W 146°36'44 6.3 100 / 301010.1 5.4 1.0 8.9
2015-Mar-18 17:00N 60°36' W 147°42'   090 / 281000.9 5.4 1.0 6.7

Dump ship's entire track history